createdAt,value
2023-05-21T00:01:36.296Z,1.85
2023-05-21T00:04:03.590Z,1.80
2023-05-21T00:06:30.473Z,1.83
2023-05-21T00:08:57.274Z,1.60
2023-05-21T00:11:26.190Z,1.60
2023-05-21T00:13:52.783Z,1.60
2023-05-21T00:16:19.394Z,1.43
2023-05-21T00:18:46.054Z,1.70
2023-05-21T00:21:14.167Z,1.75
2023-05-21T00:23:42.832Z,1.80
2023-05-21T00:26:09.817Z,1.25
2023-05-21T00:28:36.461Z,1.77
2023-05-21T00:31:03.249Z,1.60
2023-05-21T00:33:31.959Z,1.50
2023-05-21T00:35:59.056Z,1.52
2023-05-21T00:38:28.015Z,1.20
2023-05-21T00:40:54.660Z,1.37
2023-05-21T00:43:26.118Z,1.45
2023-05-21T00:45:53.958Z,1.75
2023-05-21T00:48:23.318Z,1.77
2023-05-21T00:50:50.642Z,1.40
2023-05-21T00:53:19.469Z,1.63
2023-05-21T00:55:46.845Z,1.33
2023-05-21T00:58:13.776Z,1.45
2023-05-21T01:00:43.151Z,1.67
2023-05-21T01:03:12.369Z,1.77
2023-05-21T01:05:39.403Z,1.53
2023-05-21T01:08:07.672Z,1.65
2023-05-21T01:10:34.322Z,1.70
2023-05-21T01:13:01.456Z,1.42
2023-05-21T01:15:30.904Z,1.48
2023-05-21T01:17:57.638Z,1.40
2023-05-21T01:20:26.150Z,1.52
2023-05-21T01:22:57.102Z,1.55
2023-05-21T01:25:24.629Z,1.73
2023-05-21T01:27:52.407Z,1.40
2023-05-21T01:30:20.970Z,1.60
2023-05-21T01:33:04.223Z,1.40
2023-05-21T01:35:38.946Z,1.52
2023-05-21T01:38:21.738Z,1.30
2023-05-21T01:41:04.879Z,1.48
2023-05-21T01:43:38.869Z,1.53
2023-05-21T01:46:07.887Z,1.40
2023-05-21T01:48:35.119Z,1.13
2023-05-21T01:51:05.712Z,1.65
2023-05-21T01:53:32.448Z,1.40
2023-05-21T01:55:59.526Z,1.30
2023-05-21T01:58:28.509Z,1.40
2023-05-21T02:00:55.571Z,1.27
2023-05-21T02:03:23.322Z,1.50
2023-05-21T02:05:52.028Z,1.35
2023-05-21T02:08:19.903Z,1.53
2023-05-21T02:10:46.542Z,1.20
2023-05-21T02:13:13.170Z,1.35
2023-05-21T02:15:40.323Z,1.73
2023-05-21T02:18:07.045Z,1.60
2023-05-21T02:20:36.269Z,1.40
2023-05-21T02:23:02.885Z,1.40
2023-05-21T02:25:29.556Z,1.30
2023-05-21T02:27:56.800Z,1.40
2023-05-21T02:30:23.574Z,1.60
2023-05-21T02:32:50.830Z,1.43
2023-05-21T02:35:17.607Z,1.33
2023-05-21T02:37:44.624Z,1.50
2023-05-21T02:40:12.171Z,1.30
2023-05-21T02:42:42.786Z,1.70
2023-05-21T02:45:11.773Z,1.40
2023-05-21T02:47:38.898Z,1.38
2023-05-21T02:50:07.922Z,1.38
2023-05-21T02:52:34.871Z,1.40
2023-05-21T02:55:03.807Z,1.40
2023-05-21T02:57:30.813Z,1.57
2023-05-21T02:59:57.482Z,1.42
2023-05-21T03:02:24.222Z,1.40
2023-05-21T03:04:51.616Z,1.25
2023-05-21T03:07:19.895Z,1.30
2023-05-21T03:09:46.900Z,1.60
2023-05-21T03:12:13.664Z,1.80
2023-05-21T03:14:44.196Z,1.60
2023-05-21T03:17:17.166Z,1.60
2023-05-21T03:19:44.982Z,1.33
2023-05-21T03:22:12.055Z,1.50
2023-05-21T03:24:39.559Z,1.15
2023-05-21T03:27:07.166Z,1.20
2023-05-21T03:29:34.912Z,1.55
2023-05-21T03:32:02.178Z,1.40
2023-05-21T03:34:28.883Z,1.27
2023-05-21T03:36:57.718Z,1.55
2023-05-21T03:39:24.363Z,1.67
2023-05-21T03:41:51.353Z,1.20
2023-05-21T03:44:18.057Z,1.40
2023-05-21T03:46:45.687Z,1.30
2023-05-21T03:49:12.405Z,1.60
2023-05-21T03:51:39.703Z,1.58
2023-05-21T03:54:06.513Z,1.90
2023-05-21T03:56:33.144Z,1.70
2023-05-21T03:58:59.876Z,1.40
2023-05-21T04:01:28.422Z,1.48
2023-05-21T04:04:00.043Z,1.75
2023-05-21T04:06:26.796Z,1.40
2023-05-21T04:08:53.514Z,1.20
2023-05-21T04:11:20.942Z,1.60
2023-05-21T04:13:48.248Z,1.70
2023-05-21T04:16:19.244Z,1.52
2023-05-21T04:18:46.973Z,1.38
2023-05-21T04:21:16.962Z,1.67
2023-05-21T04:23:46.270Z,1.60
2023-05-21T04:26:13.228Z,1.40
2023-05-21T04:28:42.088Z,1.20
2023-05-21T04:31:13.052Z,1.60
2023-05-21T04:33:42.268Z,1.60
2023-05-21T04:36:11.774Z,1.70
2023-05-21T04:38:39.888Z,1.40
2023-05-21T04:41:12.227Z,2.03
2023-05-21T04:43:38.902Z,1.67
2023-05-21T04:46:06.098Z,1.63
2023-05-21T04:48:32.879Z,1.67
2023-05-21T04:51:01.568Z,1.60
2023-05-21T04:53:34.043Z,1.70
2023-05-21T04:56:00.702Z,1.55
2023-05-21T04:58:28.021Z,1.80
2023-05-21T05:00:54.682Z,1.60
2023-05-21T05:03:21.418Z,1.63
2023-05-21T05:05:48.171Z,1.90
2023-05-21T05:08:15.972Z,1.73
2023-05-21T05:10:43.013Z,1.60
2023-05-21T05:13:12.678Z,1.67
2023-05-21T05:15:39.310Z,1.60
2023-05-21T05:18:08.695Z,1.65
2023-05-21T05:20:38.589Z,1.70
2023-05-21T05:23:05.177Z,1.73
2023-05-21T05:25:31.805Z,1.70
2023-05-21T05:28:00.868Z,1.90
2023-05-21T05:30:27.537Z,1.98
2023-05-21T05:32:54.137Z,2.00
2023-05-21T05:35:20.881Z,1.90
2023-05-21T05:37:47.531Z,2.00
2023-05-21T05:40:14.166Z,1.90
2023-05-21T05:42:40.818Z,2.17
2023-05-21T05:45:07.941Z,1.63
2023-05-21T05:47:34.630Z,1.88
2023-05-21T05:50:01.297Z,1.60
2023-05-21T05:52:30.556Z,1.90
2023-05-21T05:54:57.201Z,2.00
2023-05-21T05:57:23.819Z,1.67
2023-05-21T05:59:52.905Z,1.77
2023-05-21T06:02:21.779Z,2.13
2023-05-21T06:04:50.501Z,1.77
2023-05-21T06:07:17.136Z,2.28
2023-05-21T06:09:43.835Z,2.10
2023-05-21T06:12:14.697Z,1.85
2023-05-21T06:14:46.081Z,1.93
2023-05-21T06:17:12.798Z,1.73
2023-05-21T06:19:39.791Z,1.83
2023-05-21T06:22:06.451Z,1.83
2023-05-21T06:24:33.079Z,2.00
2023-05-21T06:26:59.921Z,2.27
2023-05-21T06:29:26.541Z,1.80
2023-05-21T06:31:53.181Z,1.80
2023-05-21T06:34:22.044Z,1.73
2023-05-21T06:36:48.818Z,1.90
2023-05-21T06:39:17.772Z,1.63
2023-05-21T06:41:44.451Z,1.63
2023-05-21T06:44:11.132Z,1.73
2023-05-21T06:46:40.537Z,1.80
2023-05-21T06:49:07.226Z,1.42
2023-05-21T06:51:34.097Z,1.70
2023-05-21T06:54:03.152Z,1.55
2023-05-21T06:56:29.824Z,2.10
2023-05-21T06:58:56.548Z,1.50
2023-05-21T07:01:26.397Z,2.00
2023-05-21T07:03:53.326Z,2.03
2023-05-21T07:06:19.948Z,2.00
2023-05-21T07:08:48.147Z,1.80
2023-05-21T07:11:14.777Z,2.42
2023-05-21T07:13:41.459Z,1.88
2023-05-21T07:16:08.266Z,1.83
2023-05-21T07:18:37.826Z,1.67
2023-05-21T07:21:04.667Z,1.70
2023-05-21T07:23:31.355Z,1.92
2023-05-21T07:25:58.006Z,1.70
2023-05-21T07:28:24.762Z,1.77
2023-05-21T07:30:51.460Z,2.00
2023-05-21T07:33:20.724Z,2.00
2023-05-21T07:35:47.368Z,1.80
2023-05-21T07:38:14.392Z,1.80
2023-05-21T07:40:43.461Z,1.90
2023-05-21T07:43:10.113Z,2.33
2023-05-21T07:45:36.994Z,2.40
2023-05-21T07:48:04.006Z,2.53
2023-05-21T07:50:31.355Z,1.95
2023-05-21T07:52:58.174Z,1.67
2023-05-21T07:55:24.908Z,2.40
2023-05-21T07:57:53.843Z,1.90
2023-05-21T08:00:23.852Z,2.03
2023-05-21T08:02:52.508Z,2.63
2023-05-21T08:05:19.756Z,2.40
2023-05-21T08:07:46.441Z,2.20
2023-05-21T08:10:13.129Z,1.80
2023-05-21T08:12:42.273Z,1.85
2023-05-21T08:15:09.181Z,2.05
2023-05-21T08:17:35.978Z,2.03
2023-05-21T08:20:03.740Z,1.90
2023-05-21T08:22:30.408Z,1.50
2023-05-21T08:24:57.039Z,1.90
2023-05-21T08:27:23.688Z,2.00
2023-05-21T08:29:55.074Z,1.57
2023-05-21T08:32:21.770Z,1.45
2023-05-21T08:34:50.506Z,1.67
2023-05-21T08:37:18.444Z,1.42
2023-05-21T08:39:45.091Z,1.38
2023-05-21T08:42:35.212Z,1.93
2023-05-21T08:45:05.852Z,1.60
2023-05-21T08:47:37.076Z,1.88
2023-05-21T08:50:12.265Z,1.65
2023-05-21T08:52:41.448Z,1.63
2023-05-21T08:55:09.616Z,1.60
2023-05-21T08:57:37.502Z,2.20
2023-05-21T09:00:08.299Z,3.40
2023-05-21T09:02:35.463Z,3.67
2023-05-21T09:05:03.437Z,4.50
2023-05-21T09:07:48.916Z,5.43
2023-05-21T09:10:21.764Z,4.18
2023-05-21T09:12:49.051Z,4.10
2023-05-21T09:15:15.917Z,4.20
2023-05-21T09:17:46.535Z,4.93
2023-05-21T09:20:15.972Z,4.50
2023-05-21T09:22:43.228Z,4.43
2023-05-21T09:25:12.141Z,4.18
2023-05-21T09:27:39.825Z,4.25
2023-05-21T09:30:12.500Z,3.92
2023-05-21T09:32:40.517Z,3.60
2023-05-21T09:35:16.494Z,3.28
2023-05-21T09:37:45.085Z,3.10
2023-05-21T09:40:15.717Z,3.25
2023-05-21T09:42:47.161Z,2.95
2023-05-21T09:45:21.614Z,3.00
2023-05-21T09:47:49.395Z,3.28
2023-05-21T09:50:24.383Z,2.85
2023-05-21T09:52:53.049Z,3.30
2023-05-21T09:55:23.291Z,2.58
2023-05-21T09:57:50.875Z,2.70
2023-05-21T10:00:27.636Z,2.60
2023-05-21T10:02:56.019Z,2.92
2023-05-21T10:05:28.099Z,2.60
2023-05-21T10:08:02.811Z,2.20
2023-05-21T10:10:31.141Z,2.33
2023-05-21T10:13:07.019Z,2.33
2023-05-21T10:15:47.776Z,2.53
2023-05-21T10:18:16.504Z,2.15
2023-05-21T10:20:43.632Z,2.05
2023-05-21T10:23:10.697Z,2.27
2023-05-21T10:25:37.732Z,1.85
2023-05-21T10:28:07.031Z,2.15
2023-05-21T10:30:36.360Z,1.98
2023-05-21T10:33:04.420Z,2.08
2023-05-21T10:35:32.325Z,2.33
2023-05-21T10:37:59.871Z,1.95
2023-05-21T10:40:26.531Z,1.85
2023-05-21T10:43:30.735Z,2.38
2023-05-21T10:46:26.423Z,1.98
2023-05-21T10:49:11.610Z,2.10
2023-05-21T10:52:00.388Z,1.60
2023-05-21T10:54:32.886Z,1.95
2023-05-21T10:57:08.399Z,1.65
2023-05-21T10:59:43.574Z,1.95
2023-05-21T11:02:13.151Z,1.83
2023-05-21T11:04:42.560Z,2.25
2023-05-21T11:07:12.300Z,1.88
2023-05-21T11:09:41.225Z,1.60
2023-05-21T11:12:09.845Z,1.90
2023-05-21T11:14:43.034Z,1.80
2023-05-21T11:17:09.738Z,2.13
2023-05-21T11:19:42.925Z,2.00
2023-05-21T11:22:20.112Z,1.80
2023-05-21T11:24:50.616Z,1.73
2023-05-21T11:27:36.397Z,1.70
2023-05-21T11:30:06.772Z,2.08
2023-05-21T11:32:41.004Z,1.50
2023-05-21T11:35:08.204Z,1.90
2023-05-21T11:37:41.959Z,1.55
2023-05-21T11:40:17.764Z,1.60
2023-05-21T11:42:49.649Z,1.70
2023-05-21T11:45:19.072Z,1.67
2023-05-21T11:47:46.948Z,1.60
2023-05-21T11:50:16.013Z,2.00
2023-05-21T11:52:44.224Z,1.77
2023-05-21T11:55:15.532Z,1.60
2023-05-21T11:57:48.041Z,1.70
2023-05-21T12:00:16.410Z,1.83
2023-05-21T12:02:51.656Z,1.98
2023-05-21T12:05:18.754Z,2.10
2023-05-21T12:07:50.186Z,2.15
2023-05-21T12:10:20.474Z,2.25
2023-05-21T12:12:54.797Z,2.35
2023-05-21T12:15:24.350Z,2.05
2023-05-21T12:17:52.922Z,2.20
2023-05-21T12:20:20.149Z,1.95
2023-05-21T12:22:49.132Z,2.00
2023-05-21T12:25:20.218Z,2.05
2023-05-21T12:27:48.457Z,1.85
2023-05-21T12:30:15.345Z,1.80
2023-05-21T12:32:44.404Z,1.63
2023-05-21T12:35:21.761Z,2.50
2023-05-21T12:37:50.661Z,1.90
2023-05-21T12:40:18.057Z,1.92
2023-05-21T12:42:44.853Z,2.20
2023-05-21T12:45:11.901Z,2.25
2023-05-21T12:47:38.625Z,2.72
2023-05-21T12:50:09.595Z,2.13
2023-05-21T12:52:36.390Z,2.50
2023-05-21T12:55:06.217Z,2.40
2023-05-21T12:57:41.527Z,2.47
2023-05-21T13:00:09.521Z,2.60
2023-05-21T13:02:44.823Z,2.17
2023-05-21T13:05:19.993Z,2.38
2023-05-21T13:07:48.216Z,2.23
2023-05-21T13:10:17.070Z,2.50
2023-05-21T13:12:45.141Z,2.65
2023-05-21T13:15:12.160Z,3.17
2023-05-21T13:17:39.061Z,4.18
2023-05-21T13:20:20.469Z,2.97
2023-05-21T13:22:49.316Z,4.15
2023-05-21T13:25:25.040Z,4.15
2023-05-21T13:27:55.053Z,4.80
2023-05-21T13:30:22.673Z,4.90
2023-05-21T13:32:49.654Z,4.60
2023-05-21T13:35:17.594Z,4.03
2023-05-21T13:37:45.124Z,3.88
2023-05-21T13:40:17.304Z,3.83
2023-05-21T13:42:45.924Z,3.30
2023-05-21T13:45:14.528Z,3.10
2023-05-21T13:47:41.996Z,2.80
2023-05-21T13:50:09.667Z,3.20
2023-05-21T13:52:37.572Z,2.90
2023-05-21T13:55:05.023Z,3.10
2023-05-21T13:57:31.802Z,2.67
2023-05-21T13:59:59.624Z,3.33
2023-05-21T14:02:26.549Z,2.95
2023-05-21T14:04:53.992Z,2.42
2023-05-21T14:07:21.576Z,2.33
2023-05-21T14:09:48.563Z,3.30
2023-05-21T14:12:15.244Z,2.85
2023-05-21T14:14:42.164Z,2.70
2023-05-21T14:17:08.821Z,2.88
2023-05-21T14:19:35.728Z,3.10
2023-05-21T14:22:04.641Z,3.27
2023-05-21T14:24:33.723Z,2.95
2023-05-21T14:27:00.403Z,2.30
2023-05-21T14:29:27.074Z,2.38
2023-05-21T14:31:53.754Z,2.40
2023-05-21T14:34:20.579Z,2.83
2023-05-21T14:36:49.751Z,2.60
2023-05-21T14:39:17.236Z,2.50
2023-05-21T14:41:43.852Z,2.30
2023-05-21T14:44:12.909Z,2.60
2023-05-21T14:46:39.783Z,2.67
2023-05-21T14:49:06.517Z,2.70
2023-05-21T14:51:33.131Z,2.60
2023-05-21T14:53:59.793Z,2.50
2023-05-21T14:56:27.895Z,2.35
2023-05-21T14:58:55.074Z,2.40
2023-05-21T15:01:22.008Z,2.42
2023-05-21T15:03:49.083Z,2.63
2023-05-21T15:06:16.034Z,2.65
2023-05-21T15:08:42.702Z,2.95
2023-05-21T15:11:10.112Z,2.30
2023-05-21T15:13:36.847Z,2.50
2023-05-21T15:16:03.905Z,2.72
2023-05-21T15:18:30.695Z,2.40
2023-05-21T15:20:58.298Z,2.47
2023-05-21T15:23:27.346Z,2.43
2023-05-21T15:25:54.096Z,2.65
2023-05-21T15:28:20.807Z,3.00
2023-05-21T15:30:47.464Z,2.45
2023-05-21T15:33:14.314Z,3.00
2023-05-21T15:35:41.620Z,2.10
2023-05-21T15:38:13.079Z,2.50
2023-05-21T15:40:43.459Z,3.58
2023-05-21T15:43:10.166Z,3.42
2023-05-21T15:45:42.005Z,3.47
2023-05-21T15:48:08.975Z,3.57
2023-05-21T15:50:35.883Z,3.40
2023-05-21T15:53:04.249Z,2.90
2023-05-21T15:55:36.642Z,3.30
2023-05-21T15:58:03.989Z,3.15
2023-05-21T16:00:30.813Z,3.37
2023-05-21T16:02:57.655Z,2.80
2023-05-21T16:05:26.004Z,3.58
2023-05-21T16:07:52.696Z,4.10
2023-05-21T16:10:19.432Z,4.38
2023-05-21T16:12:46.130Z,4.43
2023-05-21T16:15:12.851Z,4.00
2023-05-21T16:17:39.660Z,4.60
2023-05-21T16:20:07.309Z,4.35
2023-05-21T16:22:33.973Z,4.25
2023-05-21T16:25:00.773Z,4.00
2023-05-21T16:27:27.444Z,4.28
2023-05-21T16:29:54.135Z,4.70
2023-05-21T16:32:21.330Z,52.10
2023-05-21T16:34:48.119Z,323.10
2023-05-21T16:37:14.766Z,347.43
2023-05-21T16:39:41.472Z,284.60
2023-05-21T16:42:08.134Z,499.27
2023-05-21T16:44:36.942Z,246.40
2023-05-21T16:47:04.434Z,334.38
2023-05-21T16:49:31.071Z,589.93
2023-05-21T16:51:57.799Z,279.30
2023-05-21T16:54:24.546Z,256.42
2023-05-21T16:56:51.280Z,723.45
2023-05-21T16:59:17.961Z,635.45
2023-05-21T17:01:44.652Z,471.93
2023-05-21T17:04:13.782Z,241.38
2023-05-21T17:06:40.384Z,117.55
2023-05-21T17:09:07.112Z,138.18
2023-05-21T17:11:38.385Z,126.30
2023-05-21T17:14:05.130Z,126.33
2023-05-21T17:16:34.385Z,108.35
2023-05-21T17:19:01.207Z,93.65
2023-05-21T17:21:27.813Z,90.15
2023-05-21T17:23:54.446Z,66.13
2023-05-21T17:26:23.178Z,38.90
2023-05-21T17:28:49.874Z,64.18
2023-05-21T17:31:17.071Z,43.20
2023-05-21T17:33:43.782Z,44.05
2023-05-21T17:36:12.761Z,52.35
2023-05-21T17:38:39.388Z,64.13
2023-05-21T17:41:06.150Z,46.85
2023-05-21T17:43:32.785Z,38.88
2023-05-21T17:45:59.508Z,41.60
2023-05-21T17:48:26.554Z,43.10
2023-05-21T17:50:53.283Z,39.17
2023-05-21T17:53:20.077Z,44.15
2023-05-21T17:55:49.241Z,43.00
2023-05-21T17:58:18.079Z,24.20
2023-05-21T18:00:44.799Z,27.13
2023-05-21T18:03:11.568Z,21.10
2023-05-21T18:05:38.571Z,25.23
2023-05-21T18:08:07.019Z,16.08
2023-05-21T18:10:36.886Z,24.02
2023-05-21T18:13:05.791Z,17.17
2023-05-21T18:15:33.236Z,24.80
2023-05-21T18:18:00.233Z,24.58
2023-05-21T18:20:26.997Z,25.05
2023-05-21T18:22:54.444Z,15.68
2023-05-21T18:25:21.201Z,17.88
2023-05-21T18:27:47.903Z,19.50
2023-05-21T18:30:14.654Z,17.15
2023-05-21T18:32:41.288Z,18.52
2023-05-21T18:35:11.422Z,18.77
2023-05-21T18:37:39.094Z,17.33
2023-05-21T18:40:08.873Z,16.50
2023-05-21T18:42:38.034Z,16.65
2023-05-21T18:45:10.167Z,14.70
2023-05-21T18:47:39.224Z,13.82
2023-05-21T18:50:26.365Z,14.98
2023-05-21T18:52:56.304Z,13.73
2023-05-21T18:55:22.942Z,14.00
2023-05-21T18:57:49.691Z,9.02
2023-05-21T19:00:16.780Z,11.60
2023-05-21T19:02:44.588Z,7.80
2023-05-21T19:05:11.945Z,6.40
2023-05-21T19:07:38.753Z,5.47
2023-05-21T19:10:05.971Z,5.40
2023-05-21T19:12:34.079Z,5.75
2023-05-21T19:15:04.008Z,5.18
2023-05-21T19:17:30.683Z,5.57
2023-05-21T19:20:00.351Z,5.57
2023-05-21T19:22:27.891Z,5.40
2023-05-21T19:24:55.139Z,5.32
2023-05-21T19:27:24.210Z,4.50
2023-05-21T19:29:51.786Z,5.33
2023-05-21T19:32:20.726Z,4.40
2023-05-21T19:34:48.328Z,4.97
2023-05-21T19:37:14.978Z,4.40
2023-05-21T19:39:43.404Z,4.72
2023-05-21T19:42:10.791Z,4.77
2023-05-21T19:44:40.969Z,4.47
2023-05-21T19:47:08.124Z,5.35
2023-05-21T19:49:34.852Z,4.78
2023-05-21T19:52:02.527Z,4.70
2023-05-21T19:54:29.280Z,5.03
2023-05-21T19:56:56.825Z,6.00
2023-05-21T19:59:23.510Z,5.40
2023-05-21T20:01:50.188Z,5.28
2023-05-21T20:04:17.176Z,5.50
2023-05-21T20:06:43.889Z,5.90
2023-05-21T20:09:13.246Z,5.88
2023-05-21T20:11:42.189Z,6.07
2023-05-21T20:14:08.882Z,5.53
2023-05-21T20:16:35.642Z,6.05
2023-05-21T20:19:03.775Z,5.50
2023-05-21T20:21:31.875Z,5.90
2023-05-21T20:23:58.587Z,5.72
2023-05-21T20:26:27.579Z,5.25
2023-05-21T20:28:54.194Z,5.75
2023-05-21T20:31:21.852Z,5.27
2023-05-21T20:33:50.648Z,5.40
2023-05-21T20:36:17.904Z,5.15
2023-05-21T20:38:45.738Z,5.47
2023-05-21T20:41:12.638Z,5.57
2023-05-21T20:43:39.599Z,5.10
2023-05-21T20:46:06.457Z,5.10
2023-05-21T20:48:35.412Z,4.70
2023-05-21T20:51:05.084Z,5.30
2023-05-21T20:53:32.074Z,5.70
2023-05-21T20:56:01.668Z,4.50
2023-05-21T20:58:28.892Z,5.00
2023-05-21T21:00:55.576Z,4.85
2023-05-21T21:03:24.917Z,5.15
2023-05-21T21:05:52.909Z,4.78
2023-05-21T21:08:19.783Z,4.57
2023-05-21T21:10:47.018Z,4.78
2023-05-21T21:13:14.757Z,4.72
2023-05-21T21:15:42.710Z,4.13
2023-05-21T21:18:12.588Z,4.75
2023-05-21T21:20:41.222Z,3.97
2023-05-21T21:23:08.328Z,4.60
2023-05-21T21:25:35.013Z,4.05
2023-05-21T21:28:01.642Z,4.20
2023-05-21T21:30:28.311Z,4.28
2023-05-21T21:32:55.164Z,4.23
2023-05-21T21:35:21.890Z,4.32
2023-05-21T21:37:48.590Z,4.22
2023-05-21T21:40:15.226Z,4.10
2023-05-21T21:42:44.391Z,4.03
2023-05-21T21:45:11.412Z,4.17
2023-05-21T21:47:38.210Z,4.18
2023-05-21T21:50:05.657Z,3.88
2023-05-21T21:52:32.536Z,3.80
2023-05-21T21:54:59.261Z,3.50
2023-05-21T21:57:29.468Z,3.40
2023-05-21T21:59:56.101Z,4.00
2023-05-21T22:02:22.798Z,3.88
2023-05-21T22:04:49.499Z,3.55
2023-05-21T22:07:17.923Z,3.35
2023-05-21T22:09:45.773Z,3.60
2023-05-21T22:12:13.183Z,3.33
2023-05-21T22:14:39.863Z,3.63
2023-05-21T22:17:09.191Z,3.90
2023-05-21T22:19:35.979Z,3.60
2023-05-21T22:22:04.207Z,3.90
2023-05-21T22:24:32.399Z,3.63
2023-05-21T22:26:59.949Z,3.28
2023-05-21T22:29:31.611Z,3.30
2023-05-21T22:31:58.285Z,3.28
2023-05-21T22:34:25.435Z,3.80
2023-05-21T22:36:52.155Z,3.35
2023-05-21T22:39:18.749Z,3.33
2023-05-21T22:41:45.730Z,2.90
2023-05-21T22:44:12.334Z,3.47
2023-05-21T22:46:39.018Z,3.00
2023-05-21T22:49:06.381Z,2.67
2023-05-21T22:51:34.738Z,2.97
2023-05-21T22:54:01.896Z,3.10
2023-05-21T22:56:29.058Z,3.28
2023-05-21T22:58:58.445Z,2.90
2023-05-21T23:01:25.151Z,2.95
2023-05-21T23:03:52.107Z,2.78
2023-05-21T23:06:21.080Z,2.58
2023-05-21T23:08:47.667Z,2.60
2023-05-21T23:11:14.350Z,2.97
2023-05-21T23:13:41.345Z,2.67
2023-05-21T23:16:08.090Z,2.95
2023-05-21T23:18:35.527Z,2.95
2023-05-21T23:21:02.490Z,2.50
2023-05-21T23:23:29.273Z,2.40
2023-05-21T23:25:57.705Z,2.92
2023-05-21T23:28:25.547Z,2.45
2023-05-21T23:30:52.276Z,2.10
2023-05-21T23:33:18.925Z,2.58
2023-05-21T23:35:45.584Z,2.10
2023-05-21T23:38:12.248Z,2.13
2023-05-21T23:40:39.137Z,2.33
2023-05-21T23:43:06.063Z,2.20
2023-05-21T23:45:32.919Z,2.25
2023-05-21T23:47:59.568Z,1.97
2023-05-21T23:50:26.292Z,2.33
2023-05-21T23:52:52.981Z,1.92
2023-05-21T23:55:19.637Z,2.00
2023-05-21T23:57:46.412Z,2.55
